createdAt,value
2023-06-18T00:00:30.685Z,13.89
2023-06-18T00:01:30.753Z,13.87
2023-06-18T00:02:30.702Z,13.85
2023-06-18T00:03:30.700Z,13.78
2023-06-18T00:04:30.664Z,13.71
2023-06-18T00:05:30.663Z,13.77
2023-06-18T00:06:30.671Z,13.72
2023-06-18T00:07:30.653Z,13.72
2023-06-18T00:08:30.652Z,13.75
2023-06-18T00:09:30.641Z,13.72
2023-06-18T00:10:30.637Z,13.68
2023-06-18T00:11:30.676Z,13.74
2023-06-18T00:12:30.627Z,13.68
2023-06-18T00:13:30.618Z,13.67
2023-06-18T00:14:30.653Z,13.68
2023-06-18T00:15:30.608Z,13.65
2023-06-18T00:16:30.655Z,13.65
2023-06-18T00:17:30.596Z,13.63
2023-06-18T00:18:30.600Z,13.67
2023-06-18T00:19:30.586Z,13.57
2023-06-18T00:20:30.597Z,13.54
2023-06-18T00:21:30.574Z,13.57
2023-06-18T00:22:30.571Z,13.59
2023-06-18T00:23:30.564Z,13.56
2023-06-18T00:24:30.590Z,13.49
2023-06-18T00:25:30.572Z,13.54
2023-06-18T00:26:30.551Z,13.50
2023-06-18T00:27:30.542Z,13.60
2023-06-18T00:28:30.539Z,13.47
2023-06-18T00:29:30.534Z,13.57
2023-06-18T00:30:30.529Z,13.52
2023-06-18T00:31:30.551Z,13.52
2023-06-18T00:32:30.518Z,13.47
2023-06-18T00:33:30.507Z,13.49
2023-06-18T00:34:30.509Z,13.46
2023-06-18T00:35:30.498Z,13.52
2023-06-18T00:36:30.490Z,13.49
2023-06-18T00:37:30.489Z,13.54
2023-06-18T00:38:30.481Z,13.46
2023-06-18T00:39:30.476Z,13.47
2023-06-18T00:40:30.480Z,13.46
2023-06-18T00:41:30.461Z,13.49
2023-06-18T00:42:30.466Z,13.39
2023-06-18T00:43:30.453Z,13.38
2023-06-18T00:44:30.465Z,13.38
2023-06-18T00:45:30.481Z,13.37
2023-06-18T00:46:30.456Z,13.31
2023-06-18T00:47:30.436Z,13.38
2023-06-18T00:48:30.425Z,13.37
2023-06-18T00:49:30.423Z,13.30
2023-06-18T00:50:30.412Z,13.30
2023-06-18T00:51:30.423Z,13.23
2023-06-18T00:52:30.399Z,13.20
2023-06-18T00:53:30.392Z,13.23
2023-06-18T00:54:30.390Z,13.37
2023-06-18T00:55:30.385Z,13.22
2023-06-18T00:56:30.488Z,13.23
2023-06-18T00:57:30.384Z,13.23
2023-06-18T00:58:30.375Z,13.22
2023-06-18T00:59:30.363Z,13.16
2023-06-18T01:00:30.361Z,13.27
2023-06-18T01:01:30.380Z,13.20
2023-06-18T01:02:31.905Z,13.22
2023-06-18T01:03:30.364Z,13.28
2023-06-18T01:04:30.407Z,13.20
2023-06-18T01:05:30.332Z,13.27
2023-06-18T01:06:30.330Z,13.25
2023-06-18T01:07:38.031Z,13.25
2023-06-18T01:08:30.308Z,13.23
2023-06-18T01:09:30.306Z,13.22
2023-06-18T01:10:30.343Z,13.22
2023-06-18T01:11:30.321Z,13.22
2023-06-18T01:12:30.290Z,13.23
2023-06-18T01:13:30.282Z,13.20
2023-06-18T01:14:30.276Z,13.20
2023-06-18T01:15:30.269Z,13.18
2023-06-18T01:16:30.312Z,13.15
2023-06-18T01:17:30.284Z,13.13
2023-06-18T01:18:30.255Z,13.13
2023-06-18T01:19:30.269Z,13.22
2023-06-18T01:20:30.242Z,13.19
2023-06-18T01:21:30.235Z,13.16
2023-06-18T01:22:30.230Z,13.05
2023-06-18T01:23:30.224Z,13.03
2023-06-18T01:24:30.349Z,13.05
2023-06-18T01:25:30.217Z,13.04
2023-06-18T01:26:30.206Z,13.03
2023-06-18T01:27:30.204Z,13.03
2023-06-18T01:28:30.194Z,13.03
2023-06-18T01:29:30.186Z,13.00
2023-06-18T01:30:30.192Z,12.94
2023-06-18T01:31:30.175Z,12.97
2023-06-18T01:32:30.251Z,12.97
2023-06-18T01:33:30.168Z,12.90
2023-06-18T01:34:30.161Z,12.97
2023-06-18T01:35:30.158Z,12.90
2023-06-18T01:36:30.164Z,12.91
2023-06-18T01:37:30.172Z,12.93
2023-06-18T01:38:30.135Z,12.91
2023-06-18T01:39:30.160Z,13.00
2023-06-18T01:40:30.121Z,12.94
2023-06-18T01:41:30.120Z,12.94
2023-06-18T01:42:30.115Z,12.97
2023-06-18T01:43:30.117Z,13.00
2023-06-18T01:44:30.099Z,12.95
2023-06-18T01:45:30.093Z,12.83
2023-06-18T01:46:30.122Z,12.94
2023-06-18T01:47:30.116Z,12.95
2023-06-18T01:48:30.073Z,12.90
2023-06-18T01:49:30.071Z,12.95
2023-06-18T01:50:30.064Z,13.05
2023-06-18T01:51:30.058Z,12.97
2023-06-18T01:52:30.056Z,12.83
2023-06-18T01:53:30.055Z,12.87
2023-06-18T01:54:30.042Z,12.94
2023-06-18T01:55:30.054Z,12.94
2023-06-18T01:56:30.027Z,12.87
2023-06-18T01:57:30.024Z,12.91
2023-06-18T01:58:30.014Z,12.93
2023-06-18T01:59:30.012Z,12.94
2023-06-18T02:00:30.007Z,12.93
2023-06-18T02:01:30.022Z,12.91
2023-06-18T02:02:30.055Z,12.87
2023-06-18T02:03:30.111Z,12.87
2023-06-18T02:04:29.986Z,12.86
2023-06-18T02:05:29.985Z,12.82
2023-06-18T02:06:29.968Z,12.82
2023-06-18T02:07:29.976Z,12.87
2023-06-18T02:08:29.986Z,12.78
2023-06-18T02:09:29.951Z,12.79
2023-06-18T02:10:29.956Z,12.82
2023-06-18T02:11:29.939Z,12.76
2023-06-18T02:12:29.933Z,12.80
2023-06-18T02:13:29.933Z,12.72
2023-06-18T02:14:29.942Z,12.79
2023-06-18T02:15:29.915Z,12.73
2023-06-18T02:16:29.967Z,12.75
2023-06-18T02:17:29.928Z,12.70
2023-06-18T02:18:29.897Z,12.72
2023-06-18T02:19:29.893Z,12.79
2023-06-18T02:20:29.883Z,12.62
2023-06-18T02:21:29.891Z,12.70
2023-06-18T02:22:29.873Z,12.67
2023-06-18T02:23:29.864Z,12.68
2023-06-18T02:24:29.885Z,12.82
2023-06-18T02:25:29.887Z,12.67
2023-06-18T02:26:29.850Z,12.72
2023-06-18T02:27:29.860Z,12.67
2023-06-18T02:28:29.845Z,12.72
2023-06-18T02:29:29.831Z,12.65
2023-06-18T02:30:29.826Z,12.73
2023-06-18T02:31:29.827Z,12.70
2023-06-18T02:32:29.833Z,12.57
2023-06-18T02:33:29.807Z,12.65
2023-06-18T02:34:29.804Z,12.64
2023-06-18T02:35:29.792Z,12.65
2023-06-18T02:36:29.791Z,12.68
2023-06-18T02:37:29.781Z,12.67
2023-06-18T02:38:29.778Z,12.67
2023-06-18T02:39:29.769Z,12.70
2023-06-18T02:40:29.765Z,12.65
2023-06-18T02:41:29.755Z,12.61
2023-06-18T02:42:29.763Z,12.62
2023-06-18T02:43:29.745Z,12.65
2023-06-18T02:44:29.772Z,12.64
2023-06-18T02:45:29.745Z,12.68
2023-06-18T02:46:29.752Z,12.68
2023-06-18T02:47:29.806Z,12.68
2023-06-18T02:48:29.716Z,12.61
2023-06-18T02:49:29.712Z,12.64
2023-06-18T02:50:29.703Z,12.64
2023-06-18T02:51:29.700Z,12.70
2023-06-18T02:52:29.694Z,12.78
2023-06-18T02:53:29.688Z,12.78
2023-06-18T02:54:29.680Z,12.65
2023-06-18T02:55:29.679Z,12.78
2023-06-18T02:56:29.779Z,12.73
2023-06-18T02:57:29.663Z,12.78
2023-06-18T02:58:30.002Z,12.72
2023-06-18T02:59:29.655Z,12.72
2023-06-18T03:00:29.649Z,12.68
2023-06-18T03:01:29.660Z,12.65
2023-06-18T03:02:29.642Z,12.67
2023-06-18T03:03:29.629Z,12.65
2023-06-18T03:04:29.674Z,12.68
2023-06-18T03:05:29.746Z,12.70
2023-06-18T03:06:29.609Z,12.72
2023-06-18T03:07:29.602Z,12.61
2023-06-18T03:08:29.603Z,12.67
2023-06-18T03:09:29.590Z,12.64
2023-06-18T03:10:29.589Z,12.68
2023-06-18T03:11:29.579Z,12.73
2023-06-18T03:12:29.598Z,12.73
2023-06-18T03:13:29.576Z,12.64
2023-06-18T03:14:29.569Z,12.68
2023-06-18T03:15:29.573Z,12.64
2023-06-18T03:16:29.573Z,12.65
2023-06-18T03:17:29.561Z,12.64
2023-06-18T03:18:29.538Z,12.61
2023-06-18T03:19:29.536Z,12.70
2023-06-18T03:20:29.525Z,12.65
2023-06-18T03:21:29.522Z,12.70
2023-06-18T03:22:29.540Z,12.79
2023-06-18T03:23:29.504Z,12.73
2023-06-18T03:24:29.515Z,12.70
2023-06-18T03:25:29.501Z,12.72
2023-06-18T03:26:29.487Z,12.61
2023-06-18T03:27:29.490Z,12.67
2023-06-18T03:28:29.481Z,12.73
2023-06-18T03:29:29.475Z,12.64
2023-06-18T03:30:29.483Z,12.70
2023-06-18T03:31:29.455Z,12.62
2023-06-18T03:32:29.471Z,12.60
2023-06-18T03:33:29.447Z,12.75
2023-06-18T03:34:29.444Z,12.73
2023-06-18T03:35:29.444Z,12.72
2023-06-18T03:36:29.427Z,12.70
2023-06-18T03:37:29.421Z,12.80
2023-06-18T03:38:29.412Z,12.79
2023-06-18T03:39:29.493Z,12.79
2023-06-18T03:40:29.404Z,12.80
2023-06-18T03:41:29.399Z,12.80
2023-06-18T03:42:29.390Z,12.79
2023-06-18T03:43:29.385Z,12.91
2023-06-18T03:44:29.378Z,12.85
2023-06-18T03:45:29.373Z,12.90
2023-06-18T03:46:29.395Z,12.94
2023-06-18T03:47:29.376Z,12.97
2023-06-18T03:48:29.355Z,13.00
2023-06-18T03:49:29.348Z,12.98
2023-06-18T03:50:29.342Z,13.05
2023-06-18T03:51:29.335Z,13.38
2023-06-18T03:52:29.334Z,13.86
2023-06-18T03:53:29.322Z,14.23
2023-06-18T03:54:29.321Z,14.77
2023-06-18T03:55:29.310Z,15.09
2023-06-18T03:56:29.300Z,15.40
2023-06-18T03:57:29.298Z,15.77
2023-06-18T03:58:29.291Z,16.12
2023-06-18T03:59:29.287Z,16.41
2023-06-18T04:00:29.283Z,16.69
2023-06-18T04:01:29.339Z,17.04
2023-06-18T04:02:29.379Z,17.33
2023-06-18T04:03:29.354Z,17.63
2023-06-18T04:04:29.253Z,18.03
2023-06-18T04:05:29.249Z,18.31
2023-06-18T04:06:29.249Z,18.62
2023-06-18T04:07:29.239Z,18.89
2023-06-18T04:08:29.432Z,19.02
2023-06-18T04:09:29.229Z,19.16
2023-06-18T04:10:29.219Z,19.34
2023-06-18T04:11:29.217Z,19.58
2023-06-18T04:12:29.208Z,19.73
2023-06-18T04:13:29.206Z,19.74
2023-06-18T04:14:29.201Z,19.89
2023-06-18T04:15:29.196Z,20.06
2023-06-18T04:16:29.309Z,20.19
2023-06-18T04:17:29.218Z,20.24
2023-06-18T04:18:29.185Z,20.36
2023-06-18T04:19:29.177Z,20.59
2023-06-18T04:20:29.200Z,20.67
2023-06-18T04:21:29.168Z,20.74
2023-06-18T04:22:29.159Z,20.90
2023-06-18T04:23:29.168Z,21.00
2023-06-18T04:24:29.188Z,21.27
2023-06-18T04:25:29.153Z,21.48
2023-06-18T04:26:29.147Z,21.77
2023-06-18T04:27:29.141Z,22.06
2023-06-18T04:28:29.136Z,22.30
2023-06-18T04:29:29.132Z,22.57
2023-06-18T04:30:29.142Z,22.68
2023-06-18T04:31:29.127Z,22.70
2023-06-18T04:32:29.154Z,22.87
2023-06-18T04:33:29.119Z,22.90
2023-06-18T04:34:29.115Z,22.96
2023-06-18T04:35:29.112Z,23.13
2023-06-18T04:36:29.105Z,23.20
2023-06-18T04:37:29.115Z,23.39
2023-06-18T04:38:29.133Z,23.54
2023-06-18T04:39:29.096Z,23.68
2023-06-18T04:40:29.092Z,23.83
2023-06-18T04:41:29.093Z,24.01
2023-06-18T04:42:29.086Z,24.10
2023-06-18T04:43:29.091Z,24.14
2023-06-18T04:44:29.080Z,24.21
2023-06-18T04:45:29.094Z,24.38
2023-06-18T04:46:29.095Z,24.51
2023-06-18T04:47:29.088Z,24.51
2023-06-18T04:48:29.087Z,24.60
2023-06-18T04:49:29.063Z,24.74
2023-06-18T04:50:29.063Z,24.58
2023-06-18T04:51:29.055Z,24.61
2023-06-18T04:52:29.087Z,24.68
2023-06-18T04:53:29.064Z,24.78
2023-06-18T04:54:29.057Z,24.91
2023-06-18T04:55:29.049Z,25.06
2023-06-18T04:56:29.048Z,25.26
2023-06-18T04:57:29.051Z,25.36
2023-06-18T04:58:29.060Z,25.63
2023-06-18T04:59:29.041Z,25.53
2023-06-18T05:00:29.058Z,25.63
2023-06-18T05:01:29.038Z,25.81
2023-06-18T05:02:29.045Z,25.98
2023-06-18T05:03:29.171Z,25.98
2023-06-18T05:04:29.059Z,26.15
2023-06-18T05:05:29.040Z,26.22
2023-06-18T05:06:29.037Z,26.21
2023-06-18T05:07:29.034Z,26.16
2023-06-18T05:08:29.025Z,26.31
2023-06-18T05:09:29.024Z,26.48
2023-06-18T05:10:29.023Z,26.75
2023-06-18T05:11:29.020Z,27.00
2023-06-18T05:12:29.042Z,27.02
2023-06-18T05:13:29.020Z,27.10
2023-06-18T05:14:29.020Z,27.25
2023-06-18T05:15:29.013Z,27.29
2023-06-18T05:16:29.040Z,27.51
2023-06-18T05:17:29.016Z,27.45
2023-06-18T05:18:29.034Z,27.47
2023-06-18T05:19:29.019Z,27.45
2023-06-18T05:20:29.031Z,27.49
2023-06-18T05:21:29.011Z,27.52
2023-06-18T05:22:29.009Z,27.59
2023-06-18T05:23:29.005Z,27.77
2023-06-18T05:24:29.081Z,27.95
2023-06-18T05:25:29.009Z,28.08
2023-06-18T05:26:29.004Z,28.04
2023-06-18T05:27:29.015Z,28.08
2023-06-18T05:28:29.009Z,28.22
2023-06-18T05:29:29.025Z,28.17
2023-06-18T05:30:29.010Z,28.27
2023-06-18T05:31:29.005Z,28.30
2023-06-18T05:32:29.019Z,28.22
2023-06-18T05:33:29.006Z,28.49
2023-06-18T05:34:29.007Z,28.64
2023-06-18T05:35:29.006Z,28.64
2023-06-18T05:36:29.007Z,28.69
2023-06-18T05:37:29.011Z,28.72
2023-06-18T05:38:29.006Z,28.70
2023-06-18T05:39:29.011Z,28.85
2023-06-18T05:40:29.023Z,28.94
2023-06-18T05:41:29.022Z,29.07
2023-06-18T05:42:29.008Z,29.17
2023-06-18T05:43:29.012Z,29.38
2023-06-18T05:44:29.013Z,29.39
2023-06-18T05:45:29.017Z,29.38
2023-06-18T05:46:29.092Z,29.17
2023-06-18T05:47:29.038Z,29.35
2023-06-18T05:48:29.013Z,29.34
2023-06-18T05:49:29.013Z,29.53
2023-06-18T05:50:29.031Z,29.59
2023-06-18T05:51:29.014Z,29.53
2023-06-18T05:52:29.016Z,29.68
2023-06-18T05:53:29.020Z,29.91
2023-06-18T05:54:29.017Z,30.06
2023-06-18T05:55:29.019Z,30.00
2023-06-18T05:56:29.019Z,30.06
2023-06-18T05:57:29.023Z,29.98
2023-06-18T05:58:29.025Z,29.90
2023-06-18T05:59:29.041Z,30.06
2023-06-18T06:00:29.029Z,30.06
2023-06-18T06:01:29.048Z,30.16
2023-06-18T06:02:29.092Z,30.06
2023-06-18T06:03:29.080Z,30.46
2023-06-18T06:04:29.074Z,30.48
2023-06-18T06:05:29.040Z,30.44
2023-06-18T06:06:29.039Z,30.34
2023-06-18T06:07:29.040Z,30.57
2023-06-18T06:08:29.043Z,30.72
2023-06-18T06:09:29.043Z,30.85
2023-06-18T06:10:29.051Z,31.06
2023-06-18T06:11:29.054Z,31.09
2023-06-18T06:12:29.051Z,31.27
2023-06-18T06:13:29.051Z,31.14
2023-06-18T06:14:29.066Z,30.92
2023-06-18T06:15:29.057Z,30.90
2023-06-18T06:16:29.143Z,30.92
2023-06-18T06:17:29.133Z,31.14
2023-06-18T06:18:29.067Z,31.24
2023-06-18T06:19:29.070Z,31.22
2023-06-18T06:20:29.068Z,31.43
2023-06-18T06:21:29.081Z,31.46
2023-06-18T06:22:29.077Z,31.49
2023-06-18T06:23:29.081Z,31.40
2023-06-18T06:24:29.092Z,31.39
2023-06-18T06:25:29.095Z,31.34
2023-06-18T06:26:29.092Z,31.44
2023-06-18T06:27:29.089Z,31.46
2023-06-18T06:28:29.095Z,31.43
2023-06-18T06:29:29.096Z,31.40
2023-06-18T06:30:29.103Z,31.54
2023-06-18T06:31:29.112Z,31.51
2023-06-18T06:32:29.173Z,31.43
2023-06-18T06:33:29.111Z,31.44
2023-06-18T06:34:29.112Z,31.44
2023-06-18T06:35:29.117Z,31.59
2023-06-18T06:36:29.119Z,31.61
2023-06-18T06:37:29.126Z,31.89
2023-06-18T06:38:29.164Z,31.96
2023-06-18T06:39:29.128Z,31.94
2023-06-18T06:40:29.135Z,31.96
2023-06-18T06:41:29.137Z,31.87
2023-06-18T06:42:29.136Z,31.61
2023-06-18T06:43:29.142Z,31.78
2023-06-18T06:44:29.148Z,31.89
2023-06-18T06:45:29.272Z,32.07
2023-06-18T06:46:29.188Z,32.22
2023-06-18T06:47:29.162Z,32.38
2023-06-18T06:48:29.165Z,32.53
2023-06-18T06:49:29.165Z,32.78
2023-06-18T06:50:29.171Z,32.89
2023-06-18T06:51:29.172Z,33.09
2023-06-18T06:52:29.183Z,33.23
2023-06-18T06:53:29.182Z,33.22
2023-06-18T06:54:29.189Z,33.20
2023-06-18T06:55:29.194Z,33.37
2023-06-18T06:56:30.673Z,33.12
2023-06-18T06:57:29.202Z,32.86
2023-06-18T06:58:29.205Z,32.80
2023-06-18T06:59:29.213Z,33.02
2023-06-18T07:00:29.214Z,33.14
2023-06-18T07:01:29.264Z,33.04
2023-06-18T07:02:29.379Z,32.97
2023-06-18T07:03:29.313Z,32.64
2023-06-18T07:04:31.167Z,32.33
2023-06-18T07:05:29.244Z,31.94
2023-06-18T07:06:29.243Z,31.44
2023-06-18T07:07:29.251Z,31.42
2023-06-18T07:08:29.253Z,31.55
2023-06-18T07:09:29.259Z,31.76
2023-06-18T07:10:29.261Z,31.96
2023-06-18T07:11:29.269Z,32.14
2023-06-18T07:12:29.268Z,31.94
2023-06-18T07:13:29.276Z,32.00
2023-06-18T07:14:29.289Z,32.18
2023-06-18T07:15:29.292Z,32.31
2023-06-18T07:16:29.311Z,32.29
2023-06-18T07:17:29.328Z,32.34
2023-06-18T07:18:29.316Z,32.41
2023-06-18T07:19:29.300Z,32.71
2023-06-18T07:20:29.328Z,32.78
2023-06-18T07:21:29.343Z,32.68
2023-06-18T07:22:29.314Z,32.00
2023-06-18T07:23:29.325Z,31.99
2023-06-18T07:24:29.388Z,32.16
2023-06-18T07:25:29.334Z,32.37
2023-06-18T07:26:29.334Z,32.70
2023-06-18T07:27:29.337Z,32.93
2023-06-18T07:28:29.363Z,33.32
2023-06-18T07:29:29.349Z,33.45
2023-06-18T07:30:29.367Z,33.27
2023-06-18T07:31:29.361Z,33.39
2023-06-18T07:32:29.391Z,33.74
2023-06-18T07:33:29.367Z,33.90
2023-06-18T07:34:29.377Z,34.30
2023-06-18T07:35:29.382Z,34.52
2023-06-18T07:36:29.387Z,34.86
2023-06-18T07:37:29.402Z,34.90
2023-06-18T07:38:29.397Z,35.18
2023-06-18T07:39:29.403Z,35.12
2023-06-18T07:40:29.420Z,35.24
2023-06-18T07:41:29.417Z,35.26
2023-06-18T07:42:29.430Z,35.19
2023-06-18T07:43:29.427Z,35.19
2023-06-18T07:44:29.432Z,35.42
2023-06-18T07:45:29.447Z,35.46
2023-06-18T07:46:29.480Z,35.79
2023-06-18T07:47:29.484Z,35.29
2023-06-18T07:48:29.460Z,34.95
2023-06-18T07:49:29.465Z,34.73
2023-06-18T07:50:29.474Z,34.38
2023-06-18T07:51:29.478Z,34.45
2023-06-18T07:52:29.484Z,34.35
2023-06-18T07:53:29.491Z,34.33
2023-06-18T07:54:29.507Z,34.43
2023-06-18T07:55:29.505Z,33.74
2023-06-18T07:56:31.430Z,32.23
2023-06-18T07:57:29.522Z,31.97
2023-06-18T07:58:29.530Z,32.01
2023-06-18T07:59:29.530Z,32.40
2023-06-18T08:00:29.539Z,32.67
2023-06-18T08:01:29.575Z,33.02
2023-06-18T08:02:29.606Z,33.39
2023-06-18T08:03:29.558Z,33.52
2023-06-18T08:04:29.648Z,33.46
2023-06-18T08:05:29.588Z,33.50
2023-06-18T08:06:29.577Z,33.32
2023-06-18T08:07:29.588Z,33.32
2023-06-18T08:08:29.589Z,33.52
2023-06-18T08:09:29.602Z,33.64
2023-06-18T08:10:29.607Z,33.86
2023-06-18T08:11:29.613Z,33.92
2023-06-18T08:12:29.614Z,33.67
2023-06-18T08:13:29.623Z,33.36
2023-06-18T08:14:29.629Z,32.96
2023-06-18T08:15:29.637Z,32.73
2023-06-18T08:16:29.683Z,32.74
2023-06-18T08:17:29.699Z,33.12
2023-06-18T08:18:29.791Z,33.55
2023-06-18T08:19:29.671Z,34.11
2023-06-18T08:20:29.666Z,34.60
2023-06-18T08:21:29.680Z,34.90
2023-06-18T08:22:29.683Z,35.22
2023-06-18T08:23:29.687Z,35.55
2023-06-18T08:24:29.748Z,35.78
2023-06-18T08:25:29.704Z,35.90
2023-06-18T08:26:29.707Z,35.97
2023-06-18T08:27:29.714Z,36.01
2023-06-18T08:28:29.721Z,35.58
2023-06-18T08:29:29.730Z,33.90
2023-06-18T08:30:29.735Z,33.22
2023-06-18T08:31:29.753Z,32.75
2023-06-18T08:32:29.752Z,31.39
2023-06-18T08:33:29.757Z,30.80
2023-06-18T08:34:29.764Z,30.69
2023-06-18T08:35:29.772Z,31.09
2023-06-18T08:36:29.785Z,31.51
2023-06-18T08:37:29.784Z,31.69
2023-06-18T08:38:29.790Z,31.87
2023-06-18T08:39:29.797Z,31.71
2023-06-18T08:40:29.805Z,31.47
2023-06-18T08:41:29.808Z,31.27
2023-06-18T08:42:29.810Z,31.03
2023-06-18T08:43:29.814Z,30.87
2023-06-18T08:44:29.820Z,30.69
2023-06-18T08:45:29.867Z,30.02
2023-06-18T08:46:29.885Z,29.53
2023-06-18T08:47:29.853Z,29.39
2023-06-18T08:48:31.813Z,29.38
2023-06-18T08:49:29.856Z,29.31
2023-06-18T08:50:29.846Z,29.10
2023-06-18T08:51:29.853Z,28.70
2023-06-18T08:52:29.853Z,28.45
2023-06-18T08:53:29.858Z,28.49
2023-06-18T08:54:29.863Z,28.42
2023-06-18T08:55:29.863Z,28.19
2023-06-18T08:56:29.867Z,28.04
2023-06-18T08:57:29.882Z,27.71
2023-06-18T08:58:29.885Z,27.30
2023-06-18T08:59:29.879Z,27.08
2023-06-18T09:00:29.884Z,26.65
2023-06-18T09:01:29.886Z,26.40
2023-06-18T09:02:29.970Z,26.19
2023-06-18T09:03:29.924Z,26.00
2023-06-18T09:04:29.893Z,25.69
2023-06-18T09:05:29.900Z,25.48
2023-06-18T09:06:29.898Z,25.32
2023-06-18T09:07:29.903Z,25.16
2023-06-18T09:08:29.901Z,25.17
2023-06-18T09:09:29.902Z,24.99
2023-06-18T09:10:29.909Z,24.99
2023-06-18T09:11:35.240Z,24.92
2023-06-18T09:12:29.909Z,24.89
2023-06-18T09:13:29.915Z,24.77
2023-06-18T09:14:29.913Z,24.80
2023-06-18T09:15:29.917Z,24.88
2023-06-18T09:16:29.926Z,25.11
2023-06-18T09:17:29.943Z,25.21
2023-06-18T09:18:29.922Z,25.28
2023-06-18T09:19:29.921Z,25.22
2023-06-18T09:20:29.923Z,25.40
2023-06-18T09:21:29.925Z,25.51
2023-06-18T09:22:29.929Z,25.54
2023-06-18T09:23:29.933Z,25.78
2023-06-18T09:24:29.951Z,25.85
2023-06-18T09:25:32.220Z,25.88
2023-06-18T09:26:29.932Z,26.02
2023-06-18T09:27:29.934Z,26.07
2023-06-18T09:28:29.984Z,25.88
2023-06-18T09:29:29.940Z,25.62
2023-06-18T09:30:30.026Z,25.50
2023-06-18T09:31:30.028Z,25.54
2023-06-18T09:32:29.991Z,25.51
2023-06-18T09:33:29.950Z,25.54
2023-06-18T09:34:29.951Z,25.58
2023-06-18T09:35:30.436Z,25.72
2023-06-18T09:36:29.952Z,25.83
2023-06-18T09:37:29.950Z,25.43
2023-06-18T09:38:29.953Z,25.44
2023-06-18T09:39:29.955Z,25.51
2023-06-18T09:40:30.012Z,25.60
2023-06-18T09:41:29.955Z,25.47
2023-06-18T09:42:29.961Z,25.53
2023-06-18T09:43:29.960Z,25.53
2023-06-18T09:44:29.957Z,25.66
2023-06-18T09:45:29.960Z,25.84
2023-06-18T09:46:30.013Z,25.96
2023-06-18T09:47:30.000Z,25.96
2023-06-18T09:48:30.002Z,25.96
2023-06-18T09:49:29.977Z,26.02
2023-06-18T09:50:29.971Z,25.87
2023-06-18T09:51:29.969Z,25.85
2023-06-18T09:52:29.978Z,26.00
2023-06-18T09:53:29.970Z,26.09
2023-06-18T09:54:29.975Z,26.25
2023-06-18T09:55:29.972Z,26.31
2023-06-18T09:56:29.977Z,26.18
2023-06-18T09:57:29.985Z,26.16
2023-06-18T09:58:29.981Z,26.40
2023-06-18T09:59:29.996Z,26.33
2023-06-18T10:00:29.992Z,26.41
2023-06-18T10:01:30.038Z,26.29
2023-06-18T10:02:30.016Z,26.15
2023-06-18T10:03:30.021Z,26.02
2023-06-18T10:04:29.988Z,25.78
2023-06-18T10:05:30.005Z,25.75
2023-06-18T10:06:29.991Z,25.46
2023-06-18T10:07:29.990Z,25.32
2023-06-18T10:08:29.993Z,25.23
2023-06-18T10:09:29.998Z,25.28
2023-06-18T10:10:29.998Z,25.29
2023-06-18T10:11:30.004Z,25.40
2023-06-18T10:12:30.007Z,25.31
2023-06-18T10:13:30.210Z,25.44
2023-06-18T10:14:30.024Z,25.54
2023-06-18T10:15:30.084Z,25.55
2023-06-18T10:16:30.065Z,25.48
2023-06-18T10:17:30.052Z,25.58
2023-06-18T10:18:30.003Z,25.47
2023-06-18T10:19:30.333Z,25.51
2023-06-18T10:20:30.007Z,25.59
2023-06-18T10:21:30.008Z,25.65
2023-06-18T10:22:30.032Z,25.65
2023-06-18T10:23:30.031Z,25.65
2023-06-18T10:24:30.040Z,25.73
2023-06-18T10:25:30.032Z,25.70
2023-06-18T10:26:30.013Z,25.75
2023-06-18T10:27:30.016Z,25.80
2023-06-18T10:28:30.016Z,25.95
2023-06-18T10:29:30.019Z,25.91
2023-06-18T10:30:30.087Z,26.00
2023-06-18T10:31:30.019Z,26.03
2023-06-18T10:32:30.082Z,26.10
2023-06-18T10:33:30.024Z,26.06
2023-06-18T10:34:30.029Z,25.96
2023-06-18T10:35:30.026Z,25.66
2023-06-18T10:36:30.029Z,25.40
2023-06-18T10:37:30.031Z,25.35
2023-06-18T10:38:30.044Z,25.36
2023-06-18T10:39:30.027Z,25.33
2023-06-18T10:40:30.037Z,25.28
2023-06-18T10:41:30.026Z,25.31
2023-06-18T10:42:30.029Z,25.25
2023-06-18T10:43:30.035Z,25.40
2023-06-18T10:44:30.043Z,25.23
2023-06-18T10:45:30.062Z,25.14
2023-06-18T10:46:30.031Z,24.96
2023-06-18T10:47:30.121Z,25.14
2023-06-18T10:48:30.036Z,25.06
2023-06-18T10:49:30.034Z,25.26
2023-06-18T10:50:30.304Z,25.36
2023-06-18T10:51:30.048Z,25.25
2023-06-18T10:52:30.633Z,25.33
2023-06-18T10:53:30.042Z,25.44
2023-06-18T10:54:30.041Z,25.47
2023-06-18T10:55:31.344Z,25.66
2023-06-18T10:56:30.042Z,25.54
2023-06-18T10:57:30.048Z,25.70
2023-06-18T10:58:30.088Z,25.62
2023-06-18T10:59:30.039Z,25.65
2023-06-18T11:00:30.117Z,25.60
2023-06-18T11:01:30.048Z,25.60
2023-06-18T11:02:30.115Z,25.72
2023-06-18T11:03:30.146Z,25.78
2023-06-18T11:04:30.048Z,25.77
2023-06-18T11:05:30.052Z,25.72
2023-06-18T11:06:30.080Z,25.68
2023-06-18T11:07:30.045Z,25.62
2023-06-18T11:08:30.052Z,25.50
2023-06-18T11:09:30.063Z,25.65
2023-06-18T11:10:30.122Z,25.65
2023-06-18T11:11:30.135Z,25.54
2023-06-18T11:12:30.193Z,25.72
2023-06-18T11:13:30.054Z,25.77
2023-06-18T11:14:30.305Z,25.81
2023-06-18T11:15:30.061Z,25.88
2023-06-18T11:16:30.053Z,26.03
2023-06-18T11:17:30.076Z,26.10
2023-06-18T11:18:30.066Z,26.09
2023-06-18T11:19:30.120Z,26.09
2023-06-18T11:20:30.059Z,26.02
2023-06-18T11:21:30.057Z,25.84
2023-06-18T11:22:30.054Z,25.70
2023-06-18T11:23:30.191Z,25.53
2023-06-18T11:24:32.701Z,25.29
2023-06-18T11:25:30.058Z,25.22
2023-06-18T11:26:30.063Z,25.08
2023-06-18T11:27:30.065Z,25.01
2023-06-18T11:28:30.065Z,25.03
2023-06-18T11:29:30.063Z,25.03
2023-06-18T11:30:30.092Z,25.04
2023-06-18T11:31:30.069Z,25.11
2023-06-18T11:32:30.203Z,25.33
2023-06-18T11:33:30.098Z,25.47
2023-06-18T11:34:30.070Z,25.59
2023-06-18T11:35:30.067Z,25.73
2023-06-18T11:36:30.069Z,25.99
2023-06-18T11:37:30.070Z,26.07
2023-06-18T11:38:30.094Z,26.19
2023-06-18T11:39:30.071Z,26.44
2023-06-18T11:40:30.082Z,26.56
2023-06-18T11:41:30.082Z,26.60
2023-06-18T11:42:30.076Z,26.56
2023-06-18T11:43:30.076Z,26.41
2023-06-18T11:44:30.080Z,26.34
2023-06-18T11:45:30.085Z,26.41
2023-06-18T11:46:30.142Z,26.65
2023-06-18T11:47:30.117Z,26.66
2023-06-18T11:48:31.334Z,26.89
2023-06-18T11:49:30.084Z,27.02
2023-06-18T11:50:30.082Z,27.10
2023-06-18T11:51:30.086Z,27.15
2023-06-18T11:52:30.084Z,27.12
2023-06-18T11:53:30.086Z,27.00
2023-06-18T11:54:30.086Z,27.05
2023-06-18T11:55:30.088Z,27.17
2023-06-18T11:56:30.123Z,27.03
2023-06-18T11:57:30.094Z,27.02
2023-06-18T11:58:30.097Z,27.15
2023-06-18T11:59:30.115Z,27.29
2023-06-18T12:00:30.102Z,27.15
2023-06-18T12:01:30.578Z,26.88
2023-06-18T12:02:30.512Z,26.78
2023-06-18T12:03:30.131Z,26.83
2023-06-18T12:04:30.127Z,26.95
2023-06-18T12:05:30.108Z,27.15
2023-06-18T12:06:30.104Z,27.18
2023-06-18T12:07:30.110Z,27.25
2023-06-18T12:08:30.110Z,27.25
2023-06-18T12:09:30.109Z,27.30
2023-06-18T12:10:30.122Z,27.37
2023-06-18T12:11:30.109Z,27.49
2023-06-18T12:12:30.142Z,27.44
2023-06-18T12:13:30.116Z,27.51
2023-06-18T12:14:30.116Z,27.48
2023-06-18T12:15:30.123Z,27.55
2023-06-18T12:16:30.130Z,27.55
2023-06-18T12:17:30.173Z,27.63
2023-06-18T12:18:30.124Z,27.70
2023-06-18T12:19:30.128Z,27.67
2023-06-18T12:20:30.129Z,27.71
2023-06-18T12:21:30.129Z,27.77
2023-06-18T12:22:30.133Z,27.93
2023-06-18T12:23:30.137Z,27.78
2023-06-18T12:24:30.166Z,27.77
2023-06-18T12:25:30.137Z,27.74
2023-06-18T12:26:30.139Z,27.70
2023-06-18T12:27:30.139Z,27.63
2023-06-18T12:28:30.147Z,27.65
2023-06-18T12:29:30.145Z,27.74
2023-06-18T12:30:30.139Z,27.64
2023-06-18T12:31:30.148Z,27.59
2023-06-18T12:32:30.169Z,27.49
2023-06-18T12:33:30.152Z,27.48
2023-06-18T12:34:30.167Z,27.44
2023-06-18T12:35:30.156Z,27.32
2023-06-18T12:36:30.159Z,27.35
2023-06-18T12:37:30.158Z,27.48
2023-06-18T12:38:30.164Z,27.55
2023-06-18T12:39:30.173Z,27.52
2023-06-18T12:40:30.173Z,27.40
2023-06-18T12:41:30.167Z,27.48
2023-06-18T12:42:30.170Z,27.52
2023-06-18T12:43:30.169Z,27.47
2023-06-18T12:44:30.174Z,27.59
2023-06-18T12:45:32.463Z,27.65
2023-06-18T12:46:30.202Z,27.70
2023-06-18T12:47:30.199Z,27.78
2023-06-18T12:48:30.188Z,27.90
2023-06-18T12:49:30.182Z,28.02
2023-06-18T12:50:30.186Z,28.14
2023-06-18T12:51:30.184Z,28.00
2023-06-18T12:52:31.204Z,28.05